createdAt,value
2022-08-14T00:03:05.469Z,20.88
2022-08-14T00:08:14.502Z,20.77
2022-08-14T00:13:21.079Z,19.08
2022-08-14T00:18:30.463Z,19.42
2022-08-14T00:23:53.943Z,24.25
2022-08-14T00:28:58.903Z,27.67
2022-08-14T00:34:36.957Z,22.45
2022-08-14T00:39:25.842Z,18.38
2022-08-14T00:44:32.872Z,21.80
2022-08-14T00:49:42.818Z,19.45
2022-08-14T00:54:58.282Z,18.55
2022-08-14T01:00:05.810Z,17.55
2022-08-14T01:05:51.083Z,18.05
2022-08-14T01:10:55.659Z,17.35
2022-08-14T01:16:03.400Z,16.65
2022-08-14T01:21:11.900Z,16.50
2022-08-14T01:26:23.572Z,20.77
2022-08-14T01:31:42.600Z,19.58
2022-08-14T01:36:46.266Z,20.73
2022-08-14T01:41:56.323Z,19.27
2022-08-14T01:47:12.457Z,23.30
2022-08-14T01:52:34.461Z,21.00
2022-08-14T01:58:02.203Z,19.35
2022-08-14T02:03:13.826Z,18.95
2022-08-14T02:08:22.283Z,17.67
2022-08-14T02:13:39.726Z,19.40
2022-08-14T02:18:47.283Z,24.80
2022-08-14T02:23:54.852Z,23.90
2022-08-14T02:29:05.473Z,23.33
2022-08-14T02:34:14.795Z,20.42
2022-08-14T02:39:25.379Z,18.65
2022-08-14T02:44:39.522Z,17.65
2022-08-14T02:49:43.219Z,17.58
2022-08-14T02:54:46.947Z,16.40
2022-08-14T02:59:52.808Z,16.30
2022-08-14T03:04:56.273Z,16.08
2022-08-14T03:10:26.899Z,18.13
2022-08-14T03:15:58.714Z,17.55
2022-08-14T03:21:04.069Z,16.95
2022-08-14T03:26:12.944Z,19.52
2022-08-14T03:31:27.906Z,19.98
2022-08-14T03:37:51.035Z,35.88
2022-08-14T03:42:01.545Z,24.13
2022-08-14T03:47:07.088Z,19.83
2022-08-14T03:52:27.989Z,18.70
2022-08-14T03:57:37.244Z,17.55
2022-08-14T04:02:46.773Z,19.52
2022-08-14T04:08:08.197Z,19.80
2022-08-14T04:13:18.402Z,19.48
2022-08-14T04:18:23.211Z,21.92
2022-08-14T04:23:32.652Z,26.52
2022-08-14T04:29:08.113Z,41.35
2022-08-14T04:34:05.457Z,34.72
2022-08-14T04:39:28.736Z,29.40
2022-08-14T04:44:36.731Z,26.50
2022-08-14T04:49:56.680Z,23.45
2022-08-14T04:55:01.387Z,28.23
2022-08-14T05:00:07.842Z,48.25
2022-08-14T05:05:22.110Z,48.30
2022-08-14T05:10:32.362Z,65.88
2022-08-14T05:15:39.387Z,53.85
2022-08-14T05:21:57.613Z,54.05
2022-08-14T05:26:18.373Z,57.72
2022-08-14T05:31:21.731Z,38.10
2022-08-14T05:36:26.960Z,38.42
2022-08-14T05:41:52.426Z,41.33
2022-08-14T05:46:56.567Z,33.00
2022-08-14T05:52:01.597Z,40.55
2022-08-14T05:57:05.800Z,40.20
2022-08-14T06:02:11.379Z,34.47
2022-08-14T06:07:16.531Z,30.27
2022-08-14T06:12:55.086Z,33.33
2022-08-14T06:17:47.297Z,30.88
2022-08-14T06:23:03.589Z,29.27
2022-08-14T06:28:07.100Z,25.58
2022-08-14T06:35:02.364Z,20.67
2022-08-14T06:38:55.857Z,17.83
2022-08-14T06:43:59.439Z,16.85
2022-08-14T06:49:02.869Z,17.42
2022-08-14T06:54:08.416Z,16.63
2022-08-14T06:59:19.539Z,16.98
2022-08-14T07:04:40.763Z,17.08
2022-08-14T07:09:51.072Z,15.68
2022-08-14T07:14:58.261Z,17.33
2022-08-14T07:20:07.229Z,17.98
2022-08-14T07:25:12.735Z,17.55
2022-08-14T07:30:34.423Z,14.35
2022-08-14T07:35:57.807Z,13.60
2022-08-14T07:41:11.729Z,14.32
2022-08-14T07:46:21.208Z,12.63
2022-08-14T07:51:36.759Z,12.45
2022-08-14T07:56:48.216Z,11.18
2022-08-14T08:01:54.190Z,11.57
2022-08-14T08:07:03.531Z,12.90
2022-08-14T08:12:15.043Z,12.05
2022-08-14T08:17:20.490Z,11.98
2022-08-14T08:22:23.919Z,12.20
2022-08-14T08:27:32.157Z,11.55
2022-08-14T08:32:40.269Z,15.02
2022-08-14T08:37:43.833Z,11.50
2022-08-14T08:42:53.184Z,6.95
2022-08-14T08:47:56.972Z,8.75
2022-08-14T08:53:02.513Z,7.45
2022-08-14T08:58:16.674Z,11.48
2022-08-14T09:03:27.384Z,18.52
2022-08-14T09:08:33.353Z,15.52
2022-08-14T09:13:38.273Z,12.02
2022-08-14T09:18:42.453Z,9.48
2022-08-14T09:24:27.482Z,9.50
2022-08-14T09:29:12.295Z,9.05
2022-08-14T09:34:27.224Z,10.55
2022-08-14T09:39:43.985Z,7.68
2022-08-14T09:45:08.896Z,7.18
2022-08-14T09:50:26.011Z,7.03
2022-08-14T09:55:41.431Z,6.60
2022-08-14T10:00:48.525Z,6.50
2022-08-14T10:05:51.888Z,6.13
2022-08-14T10:11:01.549Z,6.88
2022-08-14T10:16:07.941Z,5.93
2022-08-14T10:21:25.726Z,4.80
2022-08-14T10:26:32.100Z,6.50
2022-08-14T10:31:45.572Z,6.13
2022-08-14T10:37:14.517Z,6.50
2022-08-14T10:42:21.080Z,7.55
2022-08-14T10:47:41.512Z,7.88
2022-08-14T10:53:02.311Z,6.97
2022-08-14T10:58:07.997Z,7.20
2022-08-14T11:03:26.766Z,8.10
2022-08-14T11:08:39.476Z,7.25
2022-08-14T11:13:46.450Z,6.03
2022-08-14T11:18:51.834Z,6.35
2022-08-14T11:29:06.014Z,4.82
2022-08-14T11:34:32.228Z,4.50
2022-08-14T11:39:38.022Z,3.42
2022-08-14T11:44:46.712Z,3.58
2022-08-14T11:49:52.174Z,4.38
2022-08-14T11:55:00.553Z,4.53
2022-08-14T12:00:08.429Z,4.55
2022-08-14T12:05:14.631Z,5.68
2022-08-14T12:10:25.435Z,4.65
2022-08-14T12:15:33.982Z,5.43
2022-08-14T12:20:45.544Z,5.23
2022-08-14T12:26:01.350Z,5.18
2022-08-14T12:31:20.442Z,6.38
2022-08-14T12:36:27.953Z,6.20
2022-08-14T12:41:37.205Z,5.70
2022-08-14T12:51:59.889Z,6.13
2022-08-14T12:57:09.057Z,9.40
2022-08-14T13:02:26.063Z,6.20
2022-08-14T13:07:32.642Z,6.03
2022-08-14T13:12:56.594Z,6.15
2022-08-14T13:18:04.869Z,5.22
2022-08-14T13:23:11.224Z,5.53
2022-08-14T13:28:30.177Z,5.78
2022-08-14T13:33:38.312Z,5.80
2022-08-14T13:38:52.023Z,5.47
2022-08-14T13:43:59.364Z,6.32
2022-08-14T13:49:03.709Z,5.82
2022-08-14T13:54:11.619Z,5.53
2022-08-14T13:59:20.191Z,6.30
2022-08-14T14:04:25.079Z,6.93
2022-08-14T14:09:43.911Z,6.38
2022-08-14T14:14:54.941Z,6.72
2022-08-14T14:20:00.335Z,6.28
2022-08-14T14:25:10.218Z,5.93
2022-08-14T14:30:46.237Z,6.28
2022-08-14T14:35:46.547Z,6.45
2022-08-14T14:41:00.444Z,5.45
2022-08-14T14:46:09.506Z,6.35
2022-08-14T14:51:14.681Z,5.73
2022-08-14T14:56:48.378Z,6.07
2022-08-14T15:01:49.026Z,6.10
2022-08-14T15:06:53.119Z,5.40
2022-08-14T15:11:58.019Z,7.00
2022-08-14T15:17:02.077Z,5.13
2022-08-14T15:22:06.568Z,5.57
2022-08-14T15:27:12.503Z,5.85
2022-08-14T15:32:21.142Z,6.05
2022-08-14T15:37:32.628Z,5.32
2022-08-14T15:42:39.448Z,6.15
2022-08-14T15:47:43.037Z,5.82
2022-08-14T15:52:46.738Z,5.90
2022-08-14T15:58:03.617Z,5.78
2022-08-14T16:03:15.674Z,6.15
2022-08-14T16:08:24.386Z,6.80
2022-08-14T16:13:42.099Z,6.40
2022-08-14T16:18:47.468Z,6.28
2022-08-14T16:23:53.711Z,6.63
2022-08-14T16:29:02.574Z,5.25
2022-08-14T16:34:44.653Z,9.25
2022-08-14T16:39:31.048Z,5.07
2022-08-14T16:44:40.989Z,5.10
2022-08-14T16:50:05.097Z,5.97
2022-08-14T16:55:13.875Z,5.25
2022-08-14T17:00:33.033Z,4.75
2022-08-14T17:05:47.960Z,7.40
2022-08-14T17:11:11.052Z,5.15
2022-08-14T17:16:25.142Z,4.50
2022-08-14T17:21:37.523Z,4.88
2022-08-14T17:26:44.440Z,5.43
2022-08-14T17:31:58.536Z,5.53
2022-08-14T17:37:05.368Z,5.32
2022-08-14T17:42:16.983Z,6.47
2022-08-14T17:47:38.563Z,5.85
2022-08-14T17:52:50.091Z,4.88
2022-08-14T17:57:54.788Z,4.93
2022-08-14T18:03:00.277Z,6.07
2022-08-14T18:08:33.825Z,6.05
2022-08-14T18:13:50.908Z,6.03
2022-08-14T18:18:56.603Z,8.40
2022-08-14T18:24:00.643Z,6.13
2022-08-14T18:29:14.631Z,6.32
2022-08-14T18:34:32.283Z,7.47
2022-08-14T18:40:01.187Z,6.93
2022-08-14T18:45:12.822Z,6.32
2022-08-14T18:50:27.810Z,7.47
2022-08-14T18:55:53.276Z,7.15
2022-08-14T19:00:59.658Z,8.18
2022-08-14T19:06:05.926Z,8.65
2022-08-14T19:11:50.347Z,8.38
2022-08-14T19:16:54.915Z,8.75
2022-08-14T19:22:02.000Z,9.70
2022-08-14T19:27:23.628Z,14.27
2022-08-14T19:32:40.196Z,11.23
2022-08-14T19:37:48.434Z,11.27
2022-08-14T19:42:58.267Z,12.65
2022-08-14T19:48:03.261Z,12.80
2022-08-14T19:53:16.617Z,13.23
2022-08-14T19:58:30.190Z,15.40
2022-08-14T20:03:59.634Z,13.55
2022-08-14T20:11:06.714Z,14.85
2022-08-14T20:14:31.357Z,16.75
2022-08-14T20:19:37.984Z,17.67
2022-08-14T20:24:47.321Z,15.30
2022-08-14T20:30:29.820Z,16.70
2022-08-14T20:35:36.258Z,17.48
2022-08-14T20:40:50.417Z,17.52
2022-08-14T20:45:54.204Z,22.05
2022-08-14T20:50:58.577Z,18.17
2022-08-14T20:56:28.053Z,18.42
2022-08-14T21:01:38.555Z,18.17
2022-08-14T21:07:23.449Z,19.60
2022-08-14T21:12:06.241Z,21.45
2022-08-14T21:17:31.212Z,20.58
2022-08-14T21:22:34.637Z,22.80
2022-08-14T21:27:39.931Z,19.80
2022-08-14T21:33:02.119Z,21.23
2022-08-14T21:38:16.890Z,19.90
2022-08-14T21:43:24.755Z,19.70
2022-08-14T21:48:31.837Z,22.13
2022-08-14T21:53:36.869Z,20.20
2022-08-14T21:59:04.545Z,20.77
2022-08-14T22:04:34.758Z,24.02
2022-08-14T22:09:36.760Z,26.58
2022-08-14T22:14:43.347Z,22.27
2022-08-14T22:19:54.994Z,22.23
2022-08-14T22:25:01.174Z,22.65
2022-08-14T22:30:07.513Z,28.15
2022-08-14T22:35:23.309Z,20.95
2022-08-14T22:41:01.907Z,23.35
2022-08-14T22:45:55.791Z,29.45
2022-08-14T22:51:01.352Z,25.52
2022-08-14T22:56:05.273Z,27.35
2022-08-14T23:01:57.025Z,24.52
2022-08-14T23:07:02.715Z,23.10
2022-08-14T23:12:27.438Z,30.92
2022-08-14T23:17:40.466Z,23.35
2022-08-14T23:22:47.419Z,22.85
2022-08-14T23:28:02.962Z,24.23
2022-08-14T23:33:07.517Z,26.42
2022-08-14T23:38:29.852Z,29.38
2022-08-14T23:43:34.409Z,25.52
2022-08-14T23:48:40.414Z,30.67
2022-08-14T23:53:53.217Z,28.00
2022-08-14T23:58:57.174Z,26.83
